Time;durP1;ratioP1;P1;durP2;ratioP2;P2;SDS_P1;SDS_P2;PMS_P1;PMS_P2;Temp;Humidity;BMP_temperature;BMP_pressure;BME280_temperature;BME280_humidity;BME280_pressure;Samples;Min_cycle;Max_cycle;Signal;HPM_P1;HPM_P2
2023/03/07 04:40:46;;;;;;;;;;;28.20;51.40;;;;;;6307311;22;19922;-75
2023/03/07 04:43:14;;;;;;;;;;;28.20;51.00;;;;;;6334241;22;20347;-76
2023/03/07 04:45:41;;;;;;;;;;;28.20;51.40;;;;;;6304942;22;19917;-77
2023/03/07 04:48:07;;;;;;;;;;;28.20;50.90;;;;;;6333358;22;19989;-80
2023/03/07 04:50:34;;;;;;;;;;;28.20;49.10;;;;;;6306709;22;19902;-76
2023/03/07 04:53:01;;;;;;;;;;;28.10;47.70;;;;;;6306932;22;19911;-76
2023/03/07 04:55:27;;;;;;;;;;;28.20;49.20;;;;;;6306568;22;19914;-75
2023/03/07 04:57:56;;;;;;;;;;;28.10;47.70;;;;;;6333469;22;19956;-73
2023/03/07 05:00:23;;;;;;;;;;;28.10;49.00;;;;;;6306769;22;19902;-76
2023/03/07 05:02:50;;;;;;;;;;;28.10;48.40;;;;;;6334505;22;19940;-75
2023/03/07 05:05:16;;;;;;;;;;;28.10;49.20;;;;;;6334588;22;19902;-72
2023/03/07 05:07:43;;;;;;;;;;;28.10;49.30;;;;;;6333742;22;20313;-73
2023/03/07 05:10:10;;;;;;;;;;;28.00;50.40;;;;;;6307304;22;19906;-75
2023/03/07 05:12:37;;;;;;;;;;;27.90;49.50;;;;;;6334908;22;19907;-74
2023/03/07 05:15:04;;;;;;;;;;;28.00;50.30;;;;;;6333995;22;19918;-72
2023/03/07 05:17:31;;;;;;;;;;;27.90;52.50;;;;;;6334097;22;19910;-73
2023/03/07 05:19:58;;;;;;;;;;;27.80;52.70;;;;;;6334346;22;19966;-73
2023/03/07 05:22:24;;;;;;;;;;;27.80;50.90;;;;;;6335691;22;20241;-73
2023/03/07 05:24:51;;;;;;;;;;;27.80;49.30;;;;;;6310386;22;20339;-73
2023/03/07 05:27:18;;;;;;;;;;;27.70;51.00;;;;;;6337632;22;19977;-73
2023/03/07 05:29:44;;;;;;;;;;;27.80;52.50;;;;;;6338085;22;19907;-73
2023/03/07 05:32:12;;;;;;;;;;;27.80;52.90;;;;;;6337180;22;20276;-74
2023/03/07 05:34:38;;;;;;;;;;;27.70;55.50;;;;;;6309354;22;19903;-73
2023/03/07 05:37:05;;;;;;;;;;;27.70;53.90;;;;;;6337330;22;19903;-74
2023/03/07 05:39:32;;;;;;;;;;;27.70;55.30;;;;;;6337639;22;19907;-73
2023/03/07 05:41:59;;;;;;;;;;;27.70;54.80;;;;;;6337448;22;19919;-74
2023/03/07 05:44:26;;;;;;;;;;;27.70;55.40;;;;;;6337659;22;19906;-74
2023/03/07 05:46:52;;;;;;;;;;;27.70;55.20;;;;;;6337583;22;19937;-74
2023/03/07 05:49:19;;;;;;;;;;;27.60;55.00;;;;;;6338144;22;19903;-74
2023/03/07 05:51:46;;;;;;;;;;;27.60;54.00;;;;;;6337719;22;19902;-73
2023/03/07 05:54:13;;;;;;;;;;;27.60;55.30;;;;;;6337331;22;19906;-73
2023/03/07 05:56:39;;;;;;;;;;;27.70;55.90;;;;;;6310106;22;20353;-74
2023/03/07 05:59:06;;;;;;;;;;;27.60;54.20;;;;;;6337454;22;19903;-74
2023/03/07 06:01:33;;;;;;;;;;;27.60;54.40;;;;;;6336814;22;19956;-73
2023/03/07 06:04:00;;;;;;;;;;;27.60;54.90;;;;;;6334349;22;19921;-72
2023/03/07 06:06:27;;;;;;;;;;;27.50;55.00;;;;;;6334877;22;19913;-72
2023/03/07 06:08:53;;;;;;;;;;;27.50;55.40;;;;;;6306891;22;20336;-71
2023/03/07 06:11:20;;;;;;;;;;;27.50;54.90;;;;;;6334136;22;19913;-76
2023/03/07 06:13:47;;;;;;;;;;;27.50;53.30;;;;;;6334282;22;19903;-76
2023/03/07 06:16:13;;;;;;;;;;;27.50;53.10;;;;;;6333593;22;19967;-77
2023/03/07 06:18:40;;;;;;;;;;;27.50;51.90;;;;;;6334194;22;19906;-77
2023/03/07 06:21:07;;;;;;;;;;;27.50;52.40;;;;;;6332349;22;19907;-76
2023/03/07 06:23:34;;;;;;;;;;;27.50;51.90;;;;;;6334103;22;19926;-75
2023/03/07 06:26:02;;;;;;;;;;;27.50;51.60;;;;;;6335617;22;19910;-74
2023/03/07 06:28:29;;;;;;;;;;;27.50;51.40;;;;;;6335460;22;19915;-76
2023/03/07 06:30:56;;;;;;;;;;;27.50;52.40;;;;;;6335753;22;20322;-76
2023/03/07 06:33:23;;;;;;;;;;;27.50;53.30;;;;;;6308254;22;19914;-76
2023/03/07 06:35:50;;;;;;;;;;;27.40;53.40;;;;;;6336292;22;19934;-76
2023/03/07 06:38:17;;;;;;;;;;;27.50;53.70;;;;;;6335427;22;19985;-77
2023/03/07 06:40:43;;;;;;;;;;;27.40;53.80;;;;;;6308507;22;19954;-75
2023/03/07 06:43:13;;;;;;;;;;;27.40;54.00;;;;;;6308160;22;19918;-74
2023/03/07 06:45:40;;;;;;;;;;;27.50;53.80;;;;;;6336140;22;19907;-73
2023/03/07 06:48:06;;;;;;;;;;;27.50;54.20;;;;;;6336337;22;19906;-72
2023/03/07 06:50:33;;;;;;;;;;;27.50;54.90;;;;;;6335684;22;19947;-73
2023/03/07 06:53:00;;;;;;;;;;;27.50;55.20;;;;;;6335799;22;19942;-74
2023/03/07 06:55:26;;;;;;;;;;;27.50;55.90;;;;;;6335508;22;19938;-75
2023/03/07 06:57:53;;;;;;;;;;;27.50;56.70;;;;;;6336157;22;20352;-74
2023/03/07 07:00:21;;;;;;;;;;;27.50;57.90;;;;;;6335971;22;19934;-74
2023/03/07 07:02:48;;;;;;;;;;;27.50;58.70;;;;;;6335886;22;19918;-74
2023/03/07 07:05:15;;;;;;;;;;;27.40;59.30;;;;;;6334974;22;19942;-75
2023/03/07 07:07:42;;;;;;;;;;;27.40;60.60;;;;;;6336151;22;19956;-73
2023/03/07 07:10:09;;;;;;;;;;;27.40;61.40;;;;;;6335840;22;19907;-74
2023/03/07 07:12:35;;;;;;;;;;;27.30;62.10;;;;;;6335821;22;19907;-74
2023/03/07 07:15:04;;;;;;;;;;;27.30;62.80;;;;;;6335771;22;19907;-73
2023/03/07 07:17:31;;;;;;;;;;;27.30;62.50;;;;;;6308356;22;19986;-74
2023/03/07 07:19:58;;;;;;;;;;;27.20;63.30;;;;;;6307778;22;20036;-74
2023/03/07 07:22:25;;;;;;;;;;;27.30;63.50;;;;;;6332874;22;19921;-74
2023/03/07 07:24:51;;;;;;;;;;;27.20;64.30;;;;;;6307590;22;19902;-74
2023/03/07 07:27:18;;;;;;;;;;;27.30;64.80;;;;;;6333549;22;19936;-74
2023/03/07 07:29:45;;;;;;;;;;;27.30;65.50;;;;;;6335106;22;19914;-74
2023/03/07 07:32:11;;;;;;;;;;;27.20;66.10;;;;;;6307226;22;19964;-74
2023/03/07 07:34:38;;;;;;;;;;;27.20;66.60;;;;;;6306687;22;20317;-74
2023/03/07 07:37:05;;;;;;;;;;;27.20;67.10;;;;;;6334236;22;19913;-74
2023/03/07 07:39:32;;;;;;;;;;;27.20;67.30;;;;;;6335204;22;19938;-74
2023/03/07 07:41:58;;;;;;;;;;;27.20;67.60;;;;;;6335109;22;20337;-74
2023/03/07 07:44:28;;;;;;;;;;;27.10;67.80;;;;;;6334989;22;19946;-74
2023/03/07 07:46:54;;;;;;;;;;;27.10;68.30;;;;;;6334976;22;19903;-74
2023/03/07 07:49:21;;;;;;;;;;;27.10;68.90;;;;;;6335758;22;19906;-72
2023/03/07 07:51:48;;;;;;;;;;;27.10;69.40;;;;;;6335398;22;19967;-73
2023/03/07 07:54:15;;;;;;;;;;;27.00;69.70;;;;;;6308143;22;19906;-72
2023/03/07 07:56:41;;;;;;;;;;;27.00;70.30;;;;;;6307602;22;20250;-73
2023/03/07 07:59:08;;;;;;;;;;;27.00;70.50;;;;;;6335208;22;19911;-74
2023/03/07 08:01:35;;;;;;;;;;;27.00;70.90;;;;;;6307619;22;19903;-72
2023/03/07 08:04:02;;;;;;;;;;;27.00;71.40;;;;;;6334651;22;19915;-72
2023/03/07 08:06:29;;;;;;;;;;;26.90;71.90;;;;;;6335297;22;19914;-73
2023/03/07 08:08:56;;;;;;;;;;;26.90;72.00;;;;;;6335316;22;19903;-73
2023/03/07 08:11:23;;;;;;;;;;;26.90;72.40;;;;;;6335666;22;19910;-73
2023/03/07 08:13:50;;;;;;;;;;;26.90;72.70;;;;;;6282014;22;19903;-73
2023/03/07 08:16:17;;;;;;;;;;;26.80;73.10;;;;;;6334849;22;19936;-72
2023/03/07 08:18:51;;;;;;;;;;;26.80;73.90;;;;;;6335049;22;19986;-72
2023/03/07 08:21:18;;;;;;;;;;;26.80;74.00;;;;;;6332970;22;20116;-72
2023/03/07 08:23:44;;;;;;;;;;;26.70;74.40;;;;;;6306683;22;19919;-71
2023/03/07 08:26:12;;;;;;;;;;;26.70;75.00;;;;;;6334315;22;19915;-71
2023/03/07 08:28:39;;;;;;;;;;;26.60;75.60;;;;;;6306661;22;19903;-70
2023/03/07 08:31:09;;;;;;;;;;;26.70;75.80;;;;;;6334654;22;19907;-72
2023/03/07 08:33:36;;;;;;;;;;;26.70;76.10;;;;;;6307097;22;19906;-69
2023/03/07 08:36:03;;;;;;;;;;;26.60;76.80;;;;;;6334660;22;19906;-74
2023/03/07 08:38:30;;;;;;;;;;;26.50;77.10;;;;;;6334790;22;19985;-73
2023/03/07 08:41:03;;;;;;;;;;;26.50;77.50;;;;;;6334314;22;20287;-74
2023/03/07 08:43:30;;;;;;;;;;;26.50;77.60;;;;;;6334712;22;19915;-72
2023/03/07 08:45:57;;;;;;;;;;;26.50;77.70;;;;;;6333965;22;19908;-71
2023/03/07 08:48:24;;;;;;;;;;;26.50;78.00;;;;;;6334235;22;20307;-72
2023/03/07 08:50:51;;;;;;;;;;;26.50;78.50;;;;;;6334821;22;19910;-73
2023/03/07 08:53:18;;;;;;;;;;;26.40;78.70;;;;;;6334297;22;19907;-73
2023/03/07 08:55:45;;;;;;;;;;;26.40;78.90;;;;;;6307058;22;19942;-73
2023/03/07 08:58:11;;;;;;;;;;;26.40;78.90;;;;;;6334697;22;19913;-73
2023/03/07 09:00:38;;;;;;;;;;;26.40;79.20;;;;;;6334353;22;20264;-73
2023/03/07 09:03:05;;;;;;;;;;;26.30;79.60;;;;;;6335002;22;20210;-74
2023/03/07 09:05:32;;;;;;;;;;;26.30;79.80;;;;;;6335012;22;19907;-73
2023/03/07 09:07:59;;;;;;;;;;;26.30;79.90;;;;;;6307342;22;19952;-73
2023/03/07 09:10:26;;;;;;;;;;;26.20;80.30;;;;;;6334554;22;19911;-74
2023/03/07 09:12:54;;;;;;;;;;;26.20;80.40;;;;;;6334692;22;19914;-74
2023/03/07 09:15:21;;;;;;;;;;;26.10;80.60;;;;;;6334309;22;20340;-75
2023/03/07 09:17:48;;;;;;;;;;;26.10;80.70;;;;;;6334262;22;19902;-73
2023/03/07 09:20:17;;;;;;;;;;;26.10;80.60;;;;;;6334912;22;20217;-73
2023/03/07 09:22:45;;;;;;;;;;;26.00;80.70;;;;;;6331946;22;20373;-72
2023/03/07 09:25:12;;;;;;;;;;;26.00;80.70;;;;;;6333844;22;19910;-73
2023/03/07 09:27:39;;;;;;;;;;;26.00;80.80;;;;;;6333444;22;19907;-72
2023/03/07 09:30:06;;;;;;;;;;;26.00;80.90;;;;;;6334498;22;19903;-72
2023/03/07 09:32:33;;;;;;;;;;;25.90;81.00;;;;;;6333095;22;19913;-77
2023/03/07 09:34:59;;;;;;;;;;;25.90;80.90;;;;;;6333700;22;20318;-74
2023/03/07 09:37:26;;;;;;;;;;;25.80;81.10;;;;;;6334038;22;19914;-75
2023/03/07 09:39:57;;;;;;;;;;;25.80;81.00;;;;;;6332609;22;20435;-75
2023/03/07 09:42:25;;;;;;;;;;;25.80;80.90;;;;;;6332761;22;19995;-76
2023/03/07 09:44:54;;;;;;;;;;;25.80;80.80;;;;;;6333253;22;19914;-75
2023/03/07 09:47:41;;;;;;;;;;;25.80;80.80;;;;;;6334199;22;19956;-77
2023/03/07 09:50:12;;;;;;;;;;;25.80;80.70;;;;;;6333776;22;19914;-77
2023/03/07 09:52:38;;;;;;;;;;;25.80;80.80;;;;;;6305615;22;19907;-77
2023/03/07 09:55:09;;;;;;;;;;;25.80;80.90;;;;;;6305650;22;20238;-77
2023/03/07 09:57:40;;;;;;;;;;;25.70;81.00;;;;;;6281220;22;19914;-77
2023/03/07 10:00:25;;;;;;;;;;;25.80;81.00;;;;;;6335409;22;19964;-76
2023/03/07 10:02:52;;;;;;;;;;;25.70;81.10;;;;;;6336639;22;20230;-76
2023/03/07 10:05:32;;;;;;;;;;;25.70;81.20;;;;;;6308189;22;19914;-76
2023/03/07 10:07:59;;;;;;;;;;;25.70;81.20;;;;;;6308685;22;19913;-77
2023/03/07 10:10:30;;;;;;;;;;;25.60;81.20;;;;;;6335835;22;20346;-77
2023/03/07 10:13:10;;;;;;;;;;;25.70;81.20;;;;;;6309231;22;19995;-78
2023/03/07 10:15:52;;;;;;;;;;;25.60;81.00;;;;;;6307907;22;19964;-77
2023/03/07 10:18:31;;;;;;;;;;;25.60;81.20;;;;;;6336706;22;19914;-76
2023/03/07 10:21:16;;;;;;;;;;;25.60;81.10;;;;;;6333579;22;19907;-77
2023/03/07 10:23:46;;;;;;;;;;;25.60;81.20;;;;;;6308072;22;19952;-76
2023/03/07 10:26:31;;;;;;;;;;;25.60;81.20;;;;;;6335690;22;19913;-76
2023/03/07 10:28:58;;;;;;;;;;;25.50;81.20;;;;;;6336097;22;20344;-76
2023/03/07 10:31:28;;;;;;;;;;;25.50;81.30;;;;;;6335578;22;19903;-76
2023/03/07 10:33:55;;;;;;;;;;;25.50;81.40;;;;;;6336173;22;19907;-76
2023/03/07 10:36:22;;;;;;;;;;;25.50;81.50;;;;;;6334259;22;20331;-74
2023/03/07 10:38:52;;;;;;;;;;;25.40;81.60;;;;;;6306872;22;19903;-80
2023/03/07 10:41:20;;;;;;;;;;;25.30;81.60;;;;;;6307833;22;20341;-76
2023/03/07 10:43:47;;;;;;;;;;;25.30;81.90;;;;;;6308174;22;19918;-76
2023/03/07 10:46:14;;;;;;;;;;;25.30;82.10;;;;;;6307047;22;20318;-76
2023/03/07 10:48:45;;;;;;;;;;;25.20;82.10;;;;;;6335367;22;19938;-76
2023/03/07 10:51:30;;;;;;;;;;;25.20;82.00;;;;;;6335156;22;19923;-76
2023/03/07 10:53:56;;;;;;;;;;;25.20;82.00;;;;;;6335657;22;20243;-76
2023/03/07 10:56:23;;;;;;;;;;;25.20;82.10;;;;;;6335510;22;19906;-75
2023/03/07 10:58:58;;;;;;;;;;;25.20;82.20;;;;;;6335635;22;19960;-77
2023/03/07 11:01:26;;;;;;;;;;;25.20;82.20;;;;;;6335720;22;19952;-76
2023/03/07 11:04:00;;;;;;;;;;;25.20;82.20;;;;;;6282325;22;19963;-77
2023/03/07 11:07:02;;;;;;;;;;;25.10;82.30;;;;;;6335503;22;19910;-76
2023/03/07 11:09:30;;;;;;;;;;;25.10;82.40;;;;;;6179486;23;19983;-77
2023/03/07 11:11:57;;;;;;;;;;;25.10;82.50;;;;;;6305583;22;19917;-74
2023/03/07 11:14:24;;;;;;;;;;;25.00;82.70;;;;;;6307010;22;19903;-75
2023/03/07 11:16:51;;;;;;;;;;;25.00;82.60;;;;;;6307283;22;20391;-75
2023/03/07 11:19:36;;;;;;;;;;;25.00;82.80;;;;;;6335783;22;19903;-78
2023/03/07 11:22:04;;;;;;;;;;;24.90;82.80;;;;;;6332282;22;20337;-75
2023/03/07 11:24:35;;;;;;;;;;;24.90;83.00;;;;;;6308162;22;19918;-75
2023/03/07 11:27:02;;;;;;;;;;;24.90;83.10;;;;;;6307446;22;19914;-76
2023/03/07 11:29:32;;;;;;;;;;;24.90;83.20;;;;;;6334122;22;19906;-76
2023/03/07 11:31:59;;;;;;;;;;;24.90;83.00;;;;;;6308178;22;19902;-76
2023/03/07 11:34:40;;;;;;;;;;;24.80;82.80;;;;;;6334545;22;19914;-76
2023/03/07 11:37:07;;;;;;;;;;;24.80;83.00;;;;;;6307544;22;19948;-76
2023/03/07 11:39:36;;;;;;;;;;;24.80;83.10;;;;;;6334754;22;20325;-76
2023/03/07 11:42:04;;;;;;;;;;;24.80;83.10;;;;;;6334745;22;19914;-75
2023/03/07 11:44:37;;;;;;;;;;;24.80;83.30;;;;;;6334801;22;19926;-76
2023/03/07 11:47:22;;;;;;;;;;;24.80;83.40;;;;;;6306758;22;20411;-76
2023/03/07 11:50:12;;;;;;;;;;;24.80;83.30;;;;;;6334707;22;19910;-77
2023/03/07 11:52:43;;;;;;;;;;;24.80;83.40;;;;;;6335101;22;19907;-77
2023/03/07 11:55:14;;;;;;;;;;;24.80;83.40;;;;;;6307369;22;20498;-76
2023/03/07 11:57:45;;;;;;;;;;;24.80;83.50;;;;;;6307713;22;19910;-77
2023/03/07 12:00:17;;;;;;;;;;;24.80;83.60;;;;;;6334476;22;19914;-79
2023/03/07 12:02:50;;;;;;;;;;;24.70;83.30;;;;;;6334916;22;20288;-79
2023/03/07 12:05:34;;;;;;;;;;;24.70;83.50;;;;;;6306215;22;19906;-79
2023/03/07 12:08:01;;;;;;;;;;;24.70;83.60;;;;;;6334502;22;19989;-80
2023/03/07 12:10:31;;;;;;;;;;;24.70;83.80;;;;;;6334954;22;19925;-74
2023/03/07 12:13:06;;;;;;;;;;;24.60;84.00;;;;;;6306700;22;20374;-74
2023/03/07 12:15:51;;;;;;;;;;;24.70;84.10;;;;;;6307448;22;19955;-72
2023/03/07 12:18:29;;;;;;;;;;;24.70;84.10;;;;;;6337722;22;19910;-74
2023/03/07 12:20:55;;;;;;;;;;;24.60;84.30;;;;;;6310430;22;20028;-74
2023/03/07 12:23:22;;;;;;;;;;;24.60;84.40;;;;;;6337199;22;19915;-74
2023/03/07 12:25:49;;;;;;;;;;;24.60;84.50;;;;;;6337723;22;19906;-74
2023/03/07 12:28:16;;;;;;;;;;;24.50;84.40;;;;;;6310285;22;19988;-74
2023/03/07 12:30:51;;;;;;;;;;;24.50;84.30;;;;;;6338302;22;19902;-74
2023/03/07 12:33:24;;;;;;;;;;;24.40;84.50;;;;;;6336858;22;19903;-74
2023/03/07 12:35:51;;;;;;;;;;;24.40;85.00;;;;;;6337549;22;20336;-74
2023/03/07 12:38:18;;;;;;;;;;;24.40;85.20;;;;;;6310078;22;19982;-74
2023/03/07 12:40:48;;;;;;;;;;;24.40;85.40;;;;;;6310220;22;19907;-74
2023/03/07 12:43:36;;;;;;;;;;;24.30;85.60;;;;;;6337650;22;19933;-74
2023/03/07 12:46:08;;;;;;;;;;;24.30;85.60;;;;;;6337631;22;19906;-74
2023/03/07 12:48:40;;;;;;;;;;;24.30;85.50;;;;;;6309358;22;19906;-74
2023/03/07 12:51:25;;;;;;;;;;;24.30;85.50;;;;;;6309683;22;20520;-74
2023/03/07 12:54:10;;;;;;;;;;;24.30;85.60;;;;;;6337410;22;19985;-74
2023/03/07 12:56:52;;;;;;;;;;;24.20;85.60;;;;;;6337231;22;19903;-74
2023/03/07 12:59:21;;;;;;;;;;;24.20;85.60;;;;;;6338180;22;19903;-74
2023/03/07 13:01:59;;;;;;;;;;;24.20;85.50;;;;;;6336982;22;19906;-74
2023/03/07 13:04:25;;;;;;;;;;;24.10;85.70;;;;;;6337303;22;19910;-74
2023/03/07 13:06:52;;;;;;;;;;;24.00;85.80;;;;;;6337924;22;20305;-74
2023/03/07 13:09:23;;;;;;;;;;;24.00;85.90;;;;;;6310321;22;19903;-74
2023/03/07 13:12:07;;;;;;;;;;;24.00;85.90;;;;;;6337712;22;19981;-74
2023/03/07 13:14:38;;;;;;;;;;;23.90;86.10;;;;;;6337545;22;19909;-74
2023/03/07 13:17:06;;;;;;;;;;;23.90;86.00;;;;;;6336870;22;20056;-74
2023/03/07 13:19:37;;;;;;;;;;;23.90;85.70;;;;;;6309621;22;19980;-74
2023/03/07 13:22:16;;;;;;;;;;;23.80;85.80;;;;;;6337019;22;19903;-74
2023/03/07 13:24:44;;;;;;;;;;;23.80;86.00;;;;;;6337365;22;20321;-74
2023/03/07 13:27:14;;;;;;;;;;;23.80;85.90;;;;;;6310170;22;19903;-74
2023/03/07 13:29:59;;;;;;;;;;;23.80;85.90;;;;;;6309508;22;19903;-74
2023/03/07 13:32:43;;;;;;;;;;;23.80;85.70;;;;;;6337837;22;20276;-74
2023/03/07 13:35:10;;;;;;;;;;;23.70;85.80;;;;;;6336803;22;19903;-74
2023/03/07 13:37:47;;;;;;;;;;;23.70;85.50;;;;;;6310518;22;19911;-74
2023/03/07 13:40:32;;;;;;;;;;;23.70;85.40;;;;;;6310142;22;19903;-74
2023/03/07 13:42:59;;;;;;;;;;;23.70;85.00;;;;;;6309584;22;20313;-74
2023/03/07 13:45:38;;;;;;;;;;;23.70;84.70;;;;;;6309761;22;19909;-74
2023/03/07 13:48:05;;;;;;;;;;;23.60;84.40;;;;;;6337288;22;19910;-74
2023/03/07 13:50:34;;;;;;;;;;;23.50;84.30;;;;;;6336436;22;20227;-74
2023/03/07 13:53:17;;;;;;;;;;;23.50;84.20;;;;;;6336892;22;19918;-74
2023/03/07 13:55:49;;;;;;;;;;;23.50;83.80;;;;;;6337007;22;19906;-74
2023/03/07 13:58:20;;;;;;;;;;;23.50;83.50;;;;;;6311712;22;20334;-74
2023/03/07 14:00:52;;;;;;;;;;;23.40;83.40;;;;;;6337121;22;19907;-74
2023/03/07 14:03:24;;;;;;;;;;;23.40;83.20;;;;;;6309912;22;19911;-74
2023/03/07 14:05:51;;;;;;;;;;;23.30;81.40;;;;;;6309447;22;19949;-74
2023/03/07 14:08:17;;;;;;;;;;;23.30;80.10;;;;;;6337491;22;19924;-74
2023/03/07 14:10:45;;;;;;;;;;;23.30;78.90;;;;;;6309738;22;19906;-74
2023/03/07 14:13:12;;;;;;;;;;;23.30;78.70;;;;;;6309917;22;19909;-74
2023/03/07 14:15:57;;;;;;;;;;;23.30;77.20;;;;;;6337000;22;19914;-74
2023/03/07 14:18:49;;;;;;;;;;;23.30;72.90;;;;;;6336038;22;20310;-74
2023/03/07 14:21:28;;;;;;;;;;;23.30;70.90;;;;;;6278175;22;19934;-74
2023/03/07 14:23:55;;;;;;;;;;;23.30;70.70;;;;;;6336929;22;19911;-74
2023/03/07 14:26:25;;;;;;;;;;;23.30;68.00;;;;;;6336658;22;19914;-74
2023/03/07 14:28:57;;;;;;;;;;;23.30;65.80;;;;;;6337695;22;19906;-74
2023/03/07 14:31:36;;;;;;;;;;;23.30;64.40;;;;;;6309572;22;19956;-73
2023/03/07 14:34:15;;;;;;;;;;;23.30;64.20;;;;;;6337333;22;19947;-74
2023/03/07 14:36:41;;;;;;;;;;;23.30;65.10;;;;;;6337495;22;20671;-74
2023/03/07 14:39:11;;;;;;;;;;;23.30;63.10;;;;;;6336694;22;20318;-73
2023/03/07 14:41:38;;;;;;;;;;;23.30;63.00;;;;;;6309171;22;20484;-74
2023/03/07 14:44:13;;;;;;;;;;;23.20;63.90;;;;;;6336851;22;19972;-74
2023/03/07 14:47:00;;;;;;;;;;;23.20;62.40;;;;;;6337253;22;19942;-74
2023/03/07 14:49:45;;;;;;;;;;;23.20;62.80;;;;;;6338749;22;19915;-74
2023/03/07 14:52:13;;;;;;;;;;;23.20;62.60;;;;;;6338966;22;19902;-74
2023/03/07 14:54:39;;;;;;;;;;;23.20;61.10;;;;;;6338353;22;19907;-74
2023/03/07 14:57:07;;;;;;;;;;;23.10;58.30;;;;;;6310885;22;19903;-74
2023/03/07 14:59:34;;;;;;;;;;;23.10;56.80;;;;;;6311184;22;19957;-74
2023/03/07 15:02:01;;;;;;;;;;;23.20;55.50;;;;;;6338638;22;19903;-74
2023/03/07 15:04:28;;;;;;;;;;;23.20;55.00;;;;;;6338958;22;19918;-74
2023/03/07 15:06:56;;;;;;;;;;;23.20;54.10;;;;;;6338607;22;19903;-74
2023/03/07 15:09:23;;;;;;;;;;;23.20;53.80;;;;;;6338596;22;20230;-74
2023/03/07 15:11:56;;;;;;;;;;;23.30;52.70;;;;;;6338644;22;19934;-74
2023/03/07 15:14:32;;;;;;;;;;;23.30;52.40;;;;;;6338653;22;19906;-74
2023/03/07 15:17:01;;;;;;;;;;;23.20;51.50;;;;;;6338442;22;19935;-74
2023/03/07 15:19:38;;;;;;;;;;;23.30;51.60;;;;;;6310688;22;19956;-74
2023/03/07 15:22:12;;;;;;;;;;;23.30;52.70;;;;;;6338676;22;19956;-74
2023/03/07 15:24:42;;;;;;;;;;;23.30;52.30;;;;;;6311583;22;19915;-74
2023/03/07 15:27:09;;;;;;;;;;;23.20;51.40;;;;;;6338351;22;19907;-74
2023/03/07 15:29:36;;;;;;;;;;;23.20;52.40;;;;;;6311698;22;19903;-74
2023/03/07 15:32:05;;;;;;;;;;;23.10;52.80;;;;;;6285608;22;19952;-74
2023/03/07 15:34:33;;;;;;;;;;;23.10;53.40;;;;;;6310558;22;19906;-73
2023/03/07 15:37:19;;;;;;;;;;;23.00;53.70;;;;;;6310389;22;19911;-74
2023/03/07 15:39:53;;;;;;;;;;;23.00;53.60;;;;;;6336950;22;19925;-73
2023/03/07 15:42:20;;;;;;;;;;;23.00;53.70;;;;;;6337538;22;20351;-74
2023/03/07 15:45:00;;;;;;;;;;;23.00;53.60;;;;;;6310579;22;19944;-74
2023/03/07 15:47:28;;;;;;;;;;;22.90;54.60;;;;;;6338585;22;19903;-74
2023/03/07 15:50:03;;;;;;;;;;;22.80;54.80;;;;;;6311114;22;20310;-73
2023/03/07 15:52:33;;;;;;;;;;;22.80;54.70;;;;;;6311280;22;19903;-74
2023/03/07 15:55:00;;;;;;;;;;;22.80;56.70;;;;;;6338378;22;19903;-74
2023/03/07 15:57:36;;;;;;;;;;;22.70;57.60;;;;;;6310700;22;19907;-73
2023/03/07 16:00:04;;;;;;;;;;;22.60;56.80;;;;;;6311080;22;19903;-74
2023/03/07 16:02:31;;;;;;;;;;;22.60;57.30;;;;;;6338282;22;19914;-73
2023/03/07 16:04:58;;;;;;;;;;;22.50;57.40;;;;;;6338316;22;19914;-73
2023/03/07 16:07:25;;;;;;;;;;;22.50;56.90;;;;;;6310743;22;19907;-74
2023/03/07 16:09:52;;;;;;;;;;;22.40;56.40;;;;;;6338344;22;19902;-73
2023/03/07 16:12:19;;;;;;;;;;;22.40;54.70;;;;;;6338068;22;19923;-73
2023/03/07 16:14:49;;;;;;;;;;;22.50;53.30;;;;;;6311356;22;19910;-73
2023/03/07 16:17:17;;;;;;;;;;;22.50;53.20;;;;;;6338595;22;19925;-73
2023/03/07 16:19:43;;;;;;;;;;;22.50;52.10;;;;;;6310937;22;19906;-73
2023/03/07 16:22:14;;;;;;;;;;;22.50;51.80;;;;;;6337870;22;20340;-73
2023/03/07 16:24:41;;;;;;;;;;;22.50;50.80;;;;;;6338369;22;19911;-73
2023/03/07 16:27:13;;;;;;;;;;;22.60;50.50;;;;;;6338002;22;19964;-73
2023/03/07 16:29:40;;;;;;;;;;;22.50;49.20;;;;;;6310937;22;20249;-73
2023/03/07 16:32:09;;;;;;;;;;;22.60;49.10;;;;;;6310621;22;20202;-73
2023/03/07 17:38:11;;;;;;;;;;;21.60;55.10;;;;;;6305723;22;19948;-74
2023/03/07 17:40:38;;;;;;;;;;;21.50;56.00;;;;;;6304209;22;19937;-74
2023/03/07 17:43:04;;;;;;;;;;;21.50;56.80;;;;;;6306192;22;20322;-74
2023/03/07 17:45:31;;;;;;;;;;;21.40;56.40;;;;;;6305921;22;19914;-73
2023/03/07 17:47:58;;;;;;;;;;;21.40;56.30;;;;;;6306098;22;19977;-74
2023/03/07 17:50:24;;;;;;;;;;;21.50;54.60;;;;;;6306169;22;19903;-73
2023/03/07 17:52:52;;;;;;;;;;;21.40;56.30;;;;;;6304879;22;20166;-75
2023/03/07 17:55:19;;;;;;;;;;;21.30;56.60;;;;;;6305520;22;19903;-75
2023/03/07 17:57:45;;;;;;;;;;;21.30;56.70;;;;;;6277665;22;19910;-75
2023/03/07 18:00:13;;;;;;;;;;;21.20;56.60;;;;;;6305865;22;19939;-75
2023/03/07 18:02:40;;;;;;;;;;;21.20;57.20;;;;;;6278863;22;20040;-75
2023/03/07 18:05:07;;;;;;;;;;;21.10;57.20;;;;;;6306094;22;19914;-75
2023/03/07 18:07:33;;;;;;;;;;;21.00;57.90;;;;;;6277611;22;19903;-75
2023/03/07 18:10:00;;;;;;;;;;;20.90;58.20;;;;;;6305750;22;19965;-75
2023/03/07 18:12:27;;;;;;;;;;;20.90;58.40;;;;;;6306200;22;19930;-75
2023/03/07 18:14:53;;;;;;;;;;;21.00;59.50;;;;;;6305937;22;19935;-74
2023/03/07 18:17:20;;;;;;;;;;;20.90;60.00;;;;;;6306155;22;19903;-74
2023/03/07 18:19:47;;;;;;;;;;;21.00;59.70;;;;;;6306106;22;19903;-74
2023/03/07 18:22:14;;;;;;;;;;;21.10;61.20;;;;;;6307687;22;19910;-75
2023/03/07 18:24:41;;;;;;;;;;;21.00;60.10;;;;;;6308056;22;20265;-75
2023/03/07 18:27:07;;;;;;;;;;;20.90;60.00;;;;;;6308338;22;19903;-73
2023/03/07 18:29:34;;;;;;;;;;;20.80;59.20;;;;;;6307615;22;20371;-73
2023/03/07 18:32:01;;;;;;;;;;;20.80;59.80;;;;;;6307926;22;19997;-73
2023/03/07 18:34:27;;;;;;;;;;;20.80;60.20;;;;;;6280747;22;19903;-73
2023/03/07 18:36:54;;;;;;;;;;;20.70;60.50;;;;;;6308400;22;20240;-73
2023/03/07 18:39:21;;;;;;;;;;;20.70;60.60;;;;;;6308224;22;19949;-73
2023/03/07 18:41:48;;;;;;;;;;;20.70;61.70;;;;;;6280829;22;19998;-73
2023/03/07 18:44:17;;;;;;;;;;;20.70;61.60;;;;;;6308385;22;20349;-72
2023/03/07 18:46:43;;;;;;;;;;;20.70;61.60;;;;;;6308069;22;20345;-73
2023/03/07 18:49:10;;;;;;;;;;;20.70;61.70;;;;;;6307733;22;19913;-73
2023/03/07 18:51:38;;;;;;;;;;;20.60;62.20;;;;;;6280940;22;19903;-73
2023/03/07 18:54:05;;;;;;;;;;;20.60;64.30;;;;;;6308079;22;19973;-73
2023/03/07 18:56:32;;;;;;;;;;;20.50;63.50;;;;;;6307730;22;19907;-72
2023/03/07 18:58:59;;;;;;;;;;;20.40;63.00;;;;;;6307850;22;19902;-73
2023/03/07 19:01:26;;;;;;;;;;;20.30;63.70;;;;;;6281001;22;19998;-72
2023/03/07 19:03:54;;;;;;;;;;;20.30;63.80;;;;;;6280603;22;19965;-72
2023/03/07 19:06:21;;;;;;;;;;;20.20;63.60;;;;;;6280740;22;19910;-72
2023/03/07 19:08:48;;;;;;;;;;;20.20;64.00;;;;;;6280943;22;19938;-72
2023/03/07 19:11:15;;;;;;;;;;;20.20;64.20;;;;;;6280451;22;20271;-73
2023/03/07 19:13:42;;;;;;;;;;;20.30;61.00;;;;;;6307362;22;20053;-72
2023/03/07 19:16:08;;;;;;;;;;;20.30;60.80;;;;;;6307378;22;20280;-72
2023/03/07 19:18:35;;;;;;;;;;;20.30;61.40;;;;;;6308048;22;19903;-72
2023/03/07 19:21:12;;;;;;;;;;;20.30;61.10;;;;;;6280455;22;19910;-72
2023/03/07 19:23:39;;;;;;;;;;;20.30;61.20;;;;;;6307502;22;19998;-72
2023/03/07 19:26:06;;;;;;;;;;;20.30;59.70;;;;;;6307517;22;20031;-72
2023/03/07 19:28:33;;;;;;;;;;;20.30;59.70;;;;;;6308228;22;19981;-72
2023/03/07 19:31:10;;;;;;;;;;;20.30;59.10;;;;;;6280695;22;20334;-72
2023/03/07 19:33:36;;;;;;;;;;;20.40;57.80;;;;;;6279667;22;19910;-72
2023/03/07 19:36:07;;;;;;;;;;;20.50;57.60;;;;;;6307161;22;19911;-72
2023/03/07 19:38:34;;;;;;;;;;;20.60;56.80;;;;;;6280469;22;20310;-72
2023/03/07 19:41:01;;;;;;;;;;;20.60;56.20;;;;;;6307907;22;19914;-73
2023/03/07 19:43:28;;;;;;;;;;;20.60;56.60;;;;;;6307391;22;19915;-72
2023/03/07 19:45:55;;;;;;;;;;;20.70;54.60;;;;;;6307381;22;19907;-72
2023/03/07 19:48:22;;;;;;;;;;;20.80;53.70;;;;;;6306903;22;19929;-72
2023/03/07 19:50:52;;;;;;;;;;;20.80;53.90;;;;;;6280092;22;19903;-72
2023/03/07 19:53:19;;;;;;;;;;;20.80;54.40;;;;;;6279714;22;19903;-73
2023/03/07 19:55:45;;;;;;;;;;;20.80;53.40;;;;;;6280191;22;19952;-75
2023/03/07 19:58:12;;;;;;;;;;;20.80;53.70;;;;;;6307017;22;19911;-72
2023/03/07 20:00:41;;;;;;;;;;;20.80;53.50;;;;;;6280274;22;19949;-72
2023/03/07 20:03:11;;;;;;;;;;;20.80;53.20;;;;;;6279864;22;19930;-72
2023/03/07 20:05:45;;;;;;;;;;;20.80;53.70;;;;;;6306690;22;19903;-74
2023/03/07 20:08:12;;;;;;;;;;;20.80;53.80;;;;;;6279583;22;19906;-74
2023/03/07 20:10:39;;;;;;;;;;;20.80;54.40;;;;;;6307681;22;19906;-74
2023/03/07 20:13:05;;;;;;;;;;;20.80;54.00;;;;;;6306635;22;20337;-72